sensor_id;sensor_type;location;lat;lon;timestamp;P1;durP1;ratioP1;P2;durP2;ratioP2
40787;SDS011;26497;52.494;7.546;2022-11-11T00:01:20;10.73;;;3.35;;
40787;SDS011;26497;52.494;7.546;2022-11-11T00:03:47;4.88;;;3.08;;
40787;SDS011;26497;52.494;7.546;2022-11-11T00:06:14;9.65;;;3.25;;
40787;SDS011;26497;52.494;7.546;2022-11-11T00:08:45;4.93;;;1.80;;
40787;SDS011;26497;52.494;7.546;2022-11-11T00:11:13;13.20;;;2.97;;
40787;SDS011;26497;52.494;7.546;2022-11-11T00:13:41;9.50;;;3.10;;
40787;SDS011;26497;52.494;7.546;2022-11-11T00:16:10;6.18;;;2.72;;
40787;SDS011;26497;52.494;7.546;2022-11-11T00:18:39;15.40;;;3.15;;
40787;SDS011;26497;52.494;7.546;2022-11-11T00:21:24;10.73;;;2.95;;
40787;SDS011;26497;52.494;7.546;2022-11-11T00:24:18;5.47;;;2.78;;
40787;SDS011;26497;52.494;7.546;2022-11-11T00:27:06;5.97;;;2.85;;
40787;SDS011;26497;52.494;7.546;2022-11-11T00:29:33;8.32;;;2.85;;
40787;SDS011;26497;52.494;7.546;2022-11-11T00:32:01;10.10;;;3.03;;
40787;SDS011;26497;52.494;7.546;2022-11-11T00:34:46;9.23;;;3.50;;
40787;SDS011;26497;52.494;7.546;2022-11-11T00:37:27;11.57;;;3.08;;
40787;SDS011;26497;52.494;7.546;2022-11-11T00:39:55;8.00;;;3.08;;
40787;SDS011;26497;52.494;7.546;2022-11-11T00:42:23;14.80;;;2.90;;
40787;SDS011;26497;52.494;7.546;2022-11-11T00:44:49;8.27;;;2.67;;
40787;SDS011;26497;52.494;7.546;2022-11-11T00:47:16;10.15;;;3.40;;
40787;SDS011;26497;52.494;7.546;2022-11-11T00:50:01;15.65;;;3.60;;
40787;SDS011;26497;52.494;7.546;2022-11-11T00:52:47;11.85;;;3.42;;
40787;SDS011;26497;52.494;7.546;2022-11-11T00:55:15;9.27;;;3.67;;
40787;SDS011;26497;52.494;7.546;2022-11-11T00:57:42;14.50;;;3.42;;
40787;SDS011;26497;52.494;7.546;2022-11-11T01:00:09;8.55;;;2.72;;
40787;SDS011;26497;52.494;7.546;2022-11-11T01:02:38;9.05;;;4.30;;
40787;SDS011;26497;52.494;7.546;2022-11-11T01:05:05;10.05;;;3.72;;
40787;SDS011;26497;52.494;7.546;2022-11-11T01:07:33;17.73;;;3.80;;
40787;SDS011;26497;52.494;7.546;2022-11-11T01:10:00;12.95;;;3.78;;
40787;SDS011;26497;52.494;7.546;2022-11-11T01:12:28;12.90;;;3.30;;
40787;SDS011;26497;52.494;7.546;2022-11-11T01:14:55;15.27;;;4.32;;
40787;SDS011;26497;52.494;7.546;2022-11-11T01:17:22;14.18;;;3.80;;
40787;SDS011;26497;52.494;7.546;2022-11-11T01:19:49;7.35;;;3.72;;
40787;SDS011;26497;52.494;7.546;2022-11-11T01:22:16;20.35;;;4.45;;
40787;SDS011;26497;52.494;7.546;2022-11-11T01:24:43;9.20;;;3.28;;
40787;SDS011;26497;52.494;7.546;2022-11-11T01:27:11;19.92;;;3.97;;
40787;SDS011;26497;52.494;7.546;2022-11-11T01:29:39;11.02;;;3.72;;
40787;SDS011;26497;52.494;7.546;2022-11-11T01:32:06;9.60;;;4.30;;
40787;SDS011;26497;52.494;7.546;2022-11-11T01:34:33;22.75;;;5.55;;
40787;SDS011;26497;52.494;7.546;2022-11-11T01:37:00;7.90;;;4.10;;
40787;SDS011;26497;52.494;7.546;2022-11-11T01:39:27;12.90;;;4.68;;
40787;SDS011;26497;52.494;7.546;2022-11-11T01:41:54;10.07;;;4.45;;
40787;SDS011;26497;52.494;7.546;2022-11-11T01:47:10;14.95;;;3.92;;
40787;SDS011;26497;52.494;7.546;2022-11-11T01:49:38;17.05;;;4.75;;
40787;SDS011;26497;52.494;7.546;2022-11-11T01:52:13;9.52;;;5.10;;
40787;SDS011;26497;52.494;7.546;2022-11-11T01:54:45;13.95;;;3.80;;
40787;SDS011;26497;52.494;7.546;2022-11-11T01:57:17;13.63;;;5.22;;
40787;SDS011;26497;52.494;7.546;2022-11-11T01:59:52;13.57;;;4.45;;
40787;SDS011;26497;52.494;7.546;2022-11-11T02:02:26;13.48;;;4.38;;
40787;SDS011;26497;52.494;7.546;2022-11-11T02:05:02;14.77;;;5.75;;
40787;SDS011;26497;52.494;7.546;2022-11-11T02:07:49;13.57;;;4.82;;
40787;SDS011;26497;52.494;7.546;2022-11-11T02:10:17;10.68;;;4.97;;
40787;SDS011;26497;52.494;7.546;2022-11-11T02:12:46;11.55;;;4.85;;
40787;SDS011;26497;52.494;7.546;2022-11-11T02:15:32;8.90;;;3.95;;
40787;SDS011;26497;52.494;7.546;2022-11-11T02:17:59;6.85;;;3.85;;
40787;SDS011;26497;52.494;7.546;2022-11-11T02:20:27;10.98;;;4.30;;
40787;SDS011;26497;52.494;7.546;2022-11-11T02:22:59;13.85;;;4.07;;
40787;SDS011;26497;52.494;7.546;2022-11-11T02:25:32;14.98;;;4.72;;
40787;SDS011;26497;52.494;7.546;2022-11-11T02:30:31;11.13;;;4.40;;
40787;SDS011;26497;52.494;7.546;2022-11-11T02:32:58;12.45;;;4.45;;
40787;SDS011;26497;52.494;7.546;2022-11-11T02:35:28;12.43;;;4.43;;
40787;SDS011;26497;52.494;7.546;2022-11-11T02:37:57;13.50;;;5.00;;
40787;SDS011;26497;52.494;7.546;2022-11-11T02:40:26;12.93;;;5.43;;
40787;SDS011;26497;52.494;7.546;2022-11-11T02:43:00;12.00;;;5.03;;
40787;SDS011;26497;52.494;7.546;2022-11-11T02:45:27;22.02;;;5.60;;
40787;SDS011;26497;52.494;7.546;2022-11-11T02:47:54;20.73;;;5.07;;
40787;SDS011;26497;52.494;7.546;2022-11-11T02:50:21;15.52;;;5.38;;
40787;SDS011;26497;52.494;7.546;2022-11-11T02:52:48;16.50;;;6.45;;
40787;SDS011;26497;52.494;7.546;2022-11-11T02:55:15;18.15;;;5.57;;
40787;SDS011;26497;52.494;7.546;2022-11-11T02:57:42;17.08;;;5.20;;
40787;SDS011;26497;52.494;7.546;2022-11-11T03:00:11;13.43;;;4.30;;
40787;SDS011;26497;52.494;7.546;2022-11-11T03:02:40;17.40;;;6.32;;
40787;SDS011;26497;52.494;7.546;2022-11-11T03:05:07;12.07;;;4.78;;
40787;SDS011;26497;52.494;7.546;2022-11-11T03:07:34;14.38;;;5.68;;
40787;SDS011;26497;52.494;7.546;2022-11-11T03:10:01;11.00;;;5.53;;
40787;SDS011;26497;52.494;7.546;2022-11-11T03:12:28;9.05;;;4.90;;
40787;SDS011;26497;52.494;7.546;2022-11-11T03:14:55;11.57;;;5.20;;
40787;SDS011;26497;52.494;7.546;2022-11-11T03:17:23;18.27;;;5.20;;
40787;SDS011;26497;52.494;7.546;2022-11-11T03:20:05;13.63;;;7.18;;
40787;SDS011;26497;52.494;7.546;2022-11-11T03:22:58;12.00;;;6.22;;
40787;SDS011;26497;52.494;7.546;2022-11-11T03:25:28;18.85;;;5.63;;
40787;SDS011;26497;52.494;7.546;2022-11-11T03:28:04;12.80;;;5.85;;
40787;SDS011;26497;52.494;7.546;2022-11-11T03:30:32;17.48;;;6.20;;
40787;SDS011;26497;52.494;7.546;2022-11-11T03:33:02;12.32;;;5.97;;
40787;SDS011;26497;52.494;7.546;2022-11-11T03:35:29;11.77;;;6.60;;
40787;SDS011;26497;52.494;7.546;2022-11-11T03:37:56;20.08;;;6.55;;
40787;SDS011;26497;52.494;7.546;2022-11-11T03:40:47;12.15;;;6.90;;
40787;SDS011;26497;52.494;7.546;2022-11-11T03:43:17;13.70;;;6.68;;
40787;SDS011;26497;52.494;7.546;2022-11-11T03:45:46;11.55;;;6.53;;
40787;SDS011;26497;52.494;7.546;2022-11-11T03:48:14;16.92;;;6.53;;
40787;SDS011;26497;52.494;7.546;2022-11-11T03:50:42;17.33;;;7.57;;
40787;SDS011;26497;52.494;7.546;2022-11-11T03:53:11;16.23;;;7.40;;
40787;SDS011;26497;52.494;7.546;2022-11-11T03:55:38;15.75;;;7.97;;
40787;SDS011;26497;52.494;7.546;2022-11-11T03:58:05;12.85;;;6.28;;
40787;SDS011;26497;52.494;7.546;2022-11-11T04:00:33;10.93;;;6.53;;
40787;SDS011;26497;52.494;7.546;2022-11-11T04:03:01;11.32;;;6.28;;
40787;SDS011;26497;52.494;7.546;2022-11-11T04:05:48;11.40;;;6.57;;
40787;SDS011;26497;52.494;7.546;2022-11-11T04:08:33;14.48;;;8.43;;
40787;SDS011;26497;52.494;7.546;2022-11-11T04:11:19;19.13;;;7.40;;
40787;SDS011;26497;52.494;7.546;2022-11-11T04:13:50;20.42;;;8.00;;
40787;SDS011;26497;52.494;7.546;2022-11-11T04:16:36;19.45;;;7.32;;
40787;SDS011;26497;52.494;7.546;2022-11-11T04:19:03;17.17;;;8.35;;
40787;SDS011;26497;52.494;7.546;2022-11-11T04:21:49;17.85;;;8.20;;
40787;SDS011;26497;52.494;7.546;2022-11-11T04:24:16;16.17;;;8.23;;
40787;SDS011;26497;52.494;7.546;2022-11-11T04:27:03;17.25;;;8.48;;
40787;SDS011;26497;52.494;7.546;2022-11-11T04:29:33;13.50;;;7.80;;
40787;SDS011;26497;52.494;7.546;2022-11-11T04:32:00;15.95;;;7.65;;
40787;SDS011;26497;52.494;7.546;2022-11-11T04:34:46;25.88;;;8.75;;
40787;SDS011;26497;52.494;7.546;2022-11-11T04:37:17;21.92;;;8.65;;
40787;SDS011;26497;52.494;7.546;2022-11-11T04:39:45;15.77;;;8.07;;
40787;SDS011;26497;52.494;7.546;2022-11-11T04:42:30;18.77;;;9.02;;
40787;SDS011;26497;52.494;7.546;2022-11-11T04:44:58;18.00;;;9.52;;
40787;SDS011;26497;52.494;7.546;2022-11-11T04:47:54;20.52;;;9.20;;
40787;SDS011;26497;52.494;7.546;2022-11-11T04:50:23;20.50;;;7.80;;
40787;SDS011;26497;52.494;7.546;2022-11-11T04:52:53;21.08;;;9.75;;
40787;SDS011;26497;52.494;7.546;2022-11-11T04:55:20;12.98;;;8.45;;
40787;SDS011;26497;52.494;7.546;2022-11-11T04:58:05;17.13;;;9.57;;
40787;SDS011;26497;52.494;7.546;2022-11-11T05:00:32;17.63;;;9.75;;
40787;SDS011;26497;52.494;7.546;2022-11-11T05:03:00;18.63;;;8.52;;
40787;SDS011;26497;52.494;7.546;2022-11-11T05:05:42;12.23;;;8.23;;
40787;SDS011;26497;52.494;7.546;2022-11-11T05:08:32;14.02;;;8.23;;
40787;SDS011;26497;52.494;7.546;2022-11-11T05:11:19;18.88;;;9.20;;
40787;SDS011;26497;52.494;7.546;2022-11-11T05:13:47;18.13;;;10.02;;
40787;SDS011;26497;52.494;7.546;2022-11-11T05:16:32;20.23;;;8.85;;
40787;SDS011;26497;52.494;7.546;2022-11-11T05:19:21;12.63;;;7.22;;
40787;SDS011;26497;52.494;7.546;2022-11-11T05:22:07;18.58;;;9.23;;
40787;SDS011;26497;52.494;7.546;2022-11-11T05:24:40;19.63;;;10.65;;
40787;SDS011;26497;52.494;7.546;2022-11-11T05:27:26;14.23;;;9.15;;
40787;SDS011;26497;52.494;7.546;2022-11-11T05:29:53;20.80;;;9.45;;
40787;SDS011;26497;52.494;7.546;2022-11-11T05:32:21;23.13;;;9.05;;
40787;SDS011;26497;52.494;7.546;2022-11-11T05:34:49;22.40;;;9.25;;
40787;SDS011;26497;52.494;7.546;2022-11-11T05:37:17;17.23;;;9.52;;
40787;SDS011;26497;52.494;7.546;2022-11-11T05:39:45;20.38;;;9.18;;
40787;SDS011;26497;52.494;7.546;2022-11-11T05:42:12;19.88;;;9.25;;
40787;SDS011;26497;52.494;7.546;2022-11-11T05:44:40;16.42;;;9.00;;
40787;SDS011;26497;52.494;7.546;2022-11-11T05:47:07;23.70;;;9.18;;
40787;SDS011;26497;52.494;7.546;2022-11-11T05:49:34;19.60;;;9.68;;
40787;SDS011;26497;52.494;7.546;2022-11-11T05:52:02;16.05;;;8.23;;
40787;SDS011;26497;52.494;7.546;2022-11-11T05:54:30;19.08;;;9.23;;
40787;SDS011;26497;52.494;7.546;2022-11-11T05:56:59;22.45;;;9.48;;
40787;SDS011;26497;52.494;7.546;2022-11-11T05:59:26;14.77;;;8.68;;
40787;SDS011;26497;52.494;7.546;2022-11-11T06:01:53;26.17;;;9.48;;
40787;SDS011;26497;52.494;7.546;2022-11-11T06:04:20;15.20;;;9.13;;
40787;SDS011;26497;52.494;7.546;2022-11-11T06:06:47;20.70;;;9.75;;
40787;SDS011;26497;52.494;7.546;2022-11-11T06:09:14;17.90;;;9.55;;
40787;SDS011;26497;52.494;7.546;2022-11-11T06:11:41;22.10;;;10.30;;
40787;SDS011;26497;52.494;7.546;2022-11-11T06:14:10;17.95;;;9.90;;
40787;SDS011;26497;52.494;7.546;2022-11-11T06:16:37;21.45;;;10.75;;
40787;SDS011;26497;52.494;7.546;2022-11-11T06:19:04;25.58;;;10.23;;
40787;SDS011;26497;52.494;7.546;2022-11-11T06:21:31;25.05;;;10.35;;
40787;SDS011;26497;52.494;7.546;2022-11-11T06:24:19;25.60;;;10.43;;
40787;SDS011;26497;52.494;7.546;2022-11-11T06:26:46;26.40;;;10.35;;
40787;SDS011;26497;52.494;7.546;2022-11-11T06:29:14;20.73;;;9.68;;
40787;SDS011;26497;52.494;7.546;2022-11-11T06:31:42;21.05;;;9.90;;
40787;SDS011;26497;52.494;7.546;2022-11-11T06:34:09;22.50;;;9.02;;
40787;SDS011;26497;52.494;7.546;2022-11-11T06:36:36;17.25;;;8.65;;
40787;SDS011;26497;52.494;7.546;2022-11-11T06:39:03;15.65;;;9.23;;
40787;SDS011;26497;52.494;7.546;2022-11-11T06:41:30;13.00;;;8.45;;
40787;SDS011;26497;52.494;7.546;2022-11-11T06:43:57;20.48;;;10.57;;
40787;SDS011;26497;52.494;7.546;2022-11-11T06:46:26;15.98;;;8.73;;
40787;SDS011;26497;52.494;7.546;2022-11-11T06:48:54;23.15;;;9.85;;
40787;SDS011;26497;52.494;7.546;2022-11-11T06:51:21;17.23;;;8.93;;
40787;SDS011;26497;52.494;7.546;2022-11-11T06:53:48;24.30;;;10.88;;
40787;SDS011;26497;52.494;7.546;2022-11-11T06:56:15;17.65;;;9.20;;
40787;SDS011;26497;52.494;7.546;2022-11-11T06:58:42;20.42;;;8.82;;
40787;SDS011;26497;52.494;7.546;2022-11-11T07:01:10;26.63;;;9.68;;
40787;SDS011;26497;52.494;7.546;2022-11-11T07:03:40;18.70;;;9.90;;
40787;SDS011;26497;52.494;7.546;2022-11-11T07:06:07;17.05;;;8.68;;
40787;SDS011;26497;52.494;7.546;2022-11-11T07:08:34;16.85;;;9.85;;
40787;SDS011;26497;52.494;7.546;2022-11-11T07:11:01;20.08;;;9.57;;
40787;SDS011;26497;52.494;7.546;2022-11-11T07:13:28;18.45;;;10.35;;
40787;SDS011;26497;52.494;7.546;2022-11-11T07:15:55;18.83;;;9.45;;
40787;SDS011;26497;52.494;7.546;2022-11-11T07:18:22;16.02;;;9.38;;
40787;SDS011;26497;52.494;7.546;2022-11-11T07:20:50;26.33;;;10.80;;
40787;SDS011;26497;52.494;7.546;2022-11-11T07:23:17;17.75;;;9.45;;
40787;SDS011;26497;52.494;7.546;2022-11-11T07:25:44;18.42;;;9.15;;
40787;SDS011;26497;52.494;7.546;2022-11-11T07:28:11;23.75;;;9.95;;
40787;SDS011;26497;52.494;7.546;2022-11-11T07:30:38;21.15;;;10.07;;
40787;SDS011;26497;52.494;7.546;2022-11-11T07:33:06;20.83;;;8.85;;
40787;SDS011;26497;52.494;7.546;2022-11-11T07:35:33;21.20;;;8.88;;
40787;SDS011;26497;52.494;7.546;2022-11-11T07:38:02;23.63;;;7.82;;
40787;SDS011;26497;52.494;7.546;2022-11-11T07:40:29;23.13;;;8.40;;
40787;SDS011;26497;52.494;7.546;2022-11-11T07:42:56;15.77;;;7.68;;
40787;SDS011;26497;52.494;7.546;2022-11-11T07:45:23;12.27;;;7.72;;
40787;SDS011;26497;52.494;7.546;2022-11-11T07:51:31;13.77;;;6.35;;
40787;SDS011;26497;52.494;7.546;2022-11-11T07:53:59;13.90;;;7.22;;
40787;SDS011;26497;52.494;7.546;2022-11-11T07:56:26;15.18;;;6.90;;
40787;SDS011;26497;52.494;7.546;2022-11-11T07:58:53;13.25;;;6.57;;
40787;SDS011;26497;52.494;7.546;2022-11-11T08:01:20;14.75;;;6.95;;
40787;SDS011;26497;52.494;7.546;2022-11-11T08:03:47;15.38;;;6.85;;
40787;SDS011;26497;52.494;7.546;2022-11-11T08:06:15;14.73;;;6.75;;
40787;SDS011;26497;52.494;7.546;2022-11-11T08:08:42;13.60;;;6.20;;
40787;SDS011;26497;52.494;7.546;2022-11-11T08:11:11;12.35;;;5.25;;
40787;SDS011;26497;52.494;7.546;2022-11-11T08:13:39;17.10;;;6.10;;
40787;SDS011;26497;52.494;7.546;2022-11-11T08:16:06;16.58;;;5.18;;
40787;SDS011;26497;52.494;7.546;2022-11-11T08:18:33;11.05;;;5.95;;
40787;SDS011;26497;52.494;7.546;2022-11-11T08:21:00;10.93;;;5.25;;
40787;SDS011;26497;52.494;7.546;2022-11-11T08:23:28;22.00;;;5.43;;
40787;SDS011;26497;52.494;7.546;2022-11-11T08:25:58;12.40;;;4.93;;
40787;SDS011;26497;52.494;7.546;2022-11-11T08:28:27;13.88;;;5.88;;
40787;SDS011;26497;52.494;7.546;2022-11-11T08:30:57;15.85;;;5.55;;
40787;SDS011;26497;52.494;7.546;2022-11-11T08:33:25;9.02;;;4.53;;
40787;SDS011;26497;52.494;7.546;2022-11-11T08:35:53;14.45;;;6.38;;
40787;SDS011;26497;52.494;7.546;2022-11-11T08:38:24;12.10;;;5.25;;
40787;SDS011;26497;52.494;7.546;2022-11-11T08:40:51;13.75;;;4.85;;
40787;SDS011;26497;52.494;7.546;2022-11-11T08:43:18;6.68;;;3.28;;
40787;SDS011;26497;52.494;7.546;2022-11-11T08:45:49;7.45;;;4.13;;
40787;SDS011;26497;52.494;7.546;2022-11-11T08:48:18;7.32;;;4.43;;
40787;SDS011;26497;52.494;7.546;2022-11-11T08:50:45;9.13;;;4.00;;
40787;SDS011;26497;52.494;7.546;2022-11-11T08:53:12;8.07;;;3.97;;
40787;SDS011;26497;52.494;7.546;2022-11-11T08:55:39;8.18;;;4.25;;
40787;SDS011;26497;52.494;7.546;2022-11-11T08:58:06;12.13;;;4.18;;
40787;SDS011;26497;52.494;7.546;2022-11-11T09:00:33;12.15;;;4.80;;
40787;SDS011;26497;52.494;7.546;2022-11-11T09:03:02;14.60;;;4.57;;
40787;SDS011;26497;52.494;7.546;2022-11-11T09:05:30;11.60;;;3.58;;
40787;SDS011;26497;52.494;7.546;2022-11-11T09:07:59;10.68;;;4.13;;
40787;SDS011;26497;52.494;7.546;2022-11-11T09:10:27;8.15;;;3.75;;
40787;SDS011;26497;52.494;7.546;2022-11-11T09:12:54;10.60;;;3.95;;
40787;SDS011;26497;52.494;7.546;2022-11-11T09:15:22;10.63;;;4.15;;
40787;SDS011;26497;52.494;7.546;2022-11-11T09:17:49;10.68;;;3.30;;
40787;SDS011;26497;52.494;7.546;2022-11-11T09:20:18;6.35;;;3.83;;
40787;SDS011;26497;52.494;7.546;2022-11-11T09:22:46;9.32;;;3.65;;
40787;SDS011;26497;52.494;7.546;2022-11-11T09:25:14;13.02;;;4.15;;
40787;SDS011;26497;52.494;7.546;2022-11-11T09:27:42;9.52;;;2.90;;
40787;SDS011;26497;52.494;7.546;2022-11-11T09:30:10;6.00;;;2.97;;
40787;SDS011;26497;52.494;7.546;2022-11-11T09:32:38;4.20;;;2.55;;
40787;SDS011;26497;52.494;7.546;2022-11-11T09:35:05;6.43;;;2.72;;
40787;SDS011;26497;52.494;7.546;2022-11-11T09:37:34;9.73;;;3.17;;
40787;SDS011;26497;52.494;7.546;2022-11-11T09:40:01;4.57;;;2.55;;
40787;SDS011;26497;52.494;7.546;2022-11-11T09:42:30;9.30;;;2.95;;
40787;SDS011;26497;52.494;7.546;2022-11-11T09:45:11;7.45;;;2.45;;
40787;SDS011;26497;52.494;7.546;2022-11-11T09:47:48;8.00;;;2.53;;
40787;SDS011;26497;52.494;7.546;2022-11-11T09:50:25;4.75;;;2.28;;
40787;SDS011;26497;52.494;7.546;2022-11-11T09:55:30;9.40;;;2.38;;
40787;SDS011;26497;52.494;7.546;2022-11-11T09:58:03;5.18;;;2.15;;
40787;SDS011;26497;52.494;7.546;2022-11-11T10:00:37;4.07;;;2.10;;
40787;SDS011;26497;52.494;7.546;2022-11-11T10:03:11;4.75;;;2.25;;
40787;SDS011;26497;52.494;7.546;2022-11-11T10:05:43;5.50;;;2.72;;
40787;SDS011;26497;52.494;7.546;2022-11-11T10:08:19;4.35;;;2.88;;
40787;SDS011;26497;52.494;7.546;2022-11-11T10:10:51;4.40;;;1.90;;
40787;SDS011;26497;52.494;7.546;2022-11-11T10:13:22;4.25;;;1.90;;
40787;SDS011;26497;52.494;7.546;2022-11-11T10:15:56;4.57;;;2.13;;
40787;SDS011;26497;52.494;7.546;2022-11-11T10:18:34;11.52;;;2.20;;
40787;SDS011;26497;52.494;7.546;2022-11-11T10:21:22;5.97;;;3.17;;
40787;SDS011;26497;52.494;7.546;2022-11-11T10:23:59;3.65;;;1.85;;
40787;SDS011;26497;52.494;7.546;2022-11-11T10:26:33;3.22;;;1.73;;
40787;SDS011;26497;52.494;7.546;2022-11-11T10:29:05;9.88;;;2.80;;
40787;SDS011;26497;52.494;7.546;2022-11-11T10:31:42;3.55;;;1.73;;
40787;SDS011;26497;52.494;7.546;2022-11-11T10:34:12;6.18;;;2.25;;
40787;SDS011;26497;52.494;7.546;2022-11-11T10:36:43;8.13;;;2.10;;
40787;SDS011;26497;52.494;7.546;2022-11-11T10:39:17;3.50;;;2.10;;
40787;SDS011;26497;52.494;7.546;2022-11-11T10:41:50;6.38;;;2.05;;
40787;SDS011;26497;52.494;7.546;2022-11-11T10:44:18;6.70;;;1.73;;
40787;SDS011;26497;52.494;7.546;2022-11-11T10:46:53;5.32;;;1.85;;
40787;SDS011;26497;52.494;7.546;2022-11-11T10:49:29;2.72;;;1.83;;
40787;SDS011;26497;52.494;7.546;2022-11-11T10:52:00;6.67;;;2.07;;
40787;SDS011;26497;52.494;7.546;2022-11-11T10:54:37;2.40;;;1.40;;
40787;SDS011;26497;52.494;7.546;2022-11-11T10:57:11;5.38;;;2.15;;
40787;SDS011;26497;52.494;7.546;2022-11-11T10:59:43;2.63;;;1.47;;
40787;SDS011;26497;52.494;7.546;2022-11-11T11:02:16;7.18;;;2.00;;
40787;SDS011;26497;52.494;7.546;2022-11-11T11:04:48;3.47;;;1.23;;
40787;SDS011;26497;52.494;7.546;2022-11-11T11:07:22;5.05;;;1.85;;
40787;SDS011;26497;52.494;7.546;2022-11-11T11:09:57;2.60;;;1.65;;
40787;SDS011;26497;52.494;7.546;2022-11-11T11:12:31;7.57;;;1.83;;
40787;SDS011;26497;52.494;7.546;2022-11-11T11:15:05;7.28;;;1.90;;
40787;SDS011;26497;52.494;7.546;2022-11-11T11:17:39;6.57;;;1.90;;
40787;SDS011;26497;52.494;7.546;2022-11-11T11:20:18;3.42;;;1.38;;
40787;SDS011;26497;52.494;7.546;2022-11-11T11:22:48;16.38;;;3.08;;
40787;SDS011;26497;52.494;7.546;2022-11-11T11:25:21;2.85;;;1.65;;
40787;SDS011;26497;52.494;7.546;2022-11-11T11:27:49;8.95;;;1.75;;
40787;SDS011;26497;52.494;7.546;2022-11-11T11:30:19;6.35;;;2.20;;
40787;SDS011;26497;52.494;7.546;2022-11-11T11:32:55;10.30;;;2.70;;
40787;SDS011;26497;52.494;7.546;2022-11-11T11:35:28;2.83;;;1.35;;
40787;SDS011;26497;52.494;7.546;2022-11-11T11:37:59;3.97;;;1.45;;
40787;SDS011;26497;52.494;7.546;2022-11-11T11:40:29;5.00;;;1.67;;
40787;SDS011;26497;52.494;7.546;2022-11-11T11:43:22;2.15;;;1.25;;
40787;SDS011;26497;52.494;7.546;2022-11-11T11:45:53;3.55;;;1.50;;
40787;SDS011;26497;52.494;7.546;2022-11-11T11:48:24;3.75;;;1.50;;
40787;SDS011;26497;52.494;7.546;2022-11-11T11:51:21;4.80;;;1.60;;
40787;SDS011;26497;52.494;7.546;2022-11-11T11:54:02;4.07;;;2.05;;
40787;SDS011;26497;52.494;7.546;2022-11-11T11:56:53;3.47;;;1.85;;
40787;SDS011;26497;52.494;7.546;2022-11-11T11:59:26;7.82;;;1.73;;
40787;SDS011;26497;52.494;7.546;2022-11-11T12:02:04;4.60;;;1.42;;
40787;SDS011;26497;52.494;7.546;2022-11-11T12:05:01;6.63;;;1.75;;
40787;SDS011;26497;52.494;7.546;2022-11-11T12:07:43;9.32;;;1.90;;
40787;SDS011;26497;52.494;7.546;2022-11-11T12:10:26;4.28;;;1.95;;
40787;SDS011;26497;52.494;7.546;2022-11-11T12:13:07;8.33;;;1.90;;
40787;SDS011;26497;52.494;7.546;2022-11-11T12:15:50;2.83;;;1.90;;
40787;SDS011;26497;52.494;7.546;2022-11-11T12:18:34;3.97;;;1.55;;
40787;SDS011;26497;52.494;7.546;2022-11-11T12:21:16;1.80;;;1.10;;
40787;SDS011;26497;52.494;7.546;2022-11-11T12:23:55;2.50;;;1.48;;
40787;SDS011;26497;52.494;7.546;2022-11-11T12:26:32;6.25;;;3.58;;
40787;SDS011;26497;52.494;7.546;2022-11-11T12:29:18;14.70;;;4.57;;
40787;SDS011;26497;52.494;7.546;2022-11-11T12:31:59;3.83;;;1.23;;
40787;SDS011;26497;52.494;7.546;2022-11-11T12:34:54;1.95;;;1.23;;
40787;SDS011;26497;52.494;7.546;2022-11-11T12:37:54;8.20;;;1.33;;
40787;SDS011;26497;52.494;7.546;2022-11-11T12:40:39;5.20;;;2.78;;
40787;SDS011;26497;52.494;7.546;2022-11-11T12:43:20;5.22;;;1.33;;
40787;SDS011;26497;52.494;7.546;2022-11-11T12:45:57;5.93;;;2.53;;
40787;SDS011;26497;52.494;7.546;2022-11-11T12:51:32;11.98;;;4.95;;
40787;SDS011;26497;52.494;7.546;2022-11-11T12:54:16;6.32;;;2.08;;
40787;SDS011;26497;52.494;7.546;2022-11-11T12:56:57;5.90;;;2.00;;
40787;SDS011;26497;52.494;7.546;2022-11-11T12:59:38;4.50;;;1.00;;
40787;SDS011;26497;52.494;7.546;2022-11-11T13:02:46;4.00;;;1.65;;
40787;SDS011;26497;52.494;7.546;2022-11-11T13:05:39;2.03;;;1.00;;
40787;SDS011;26497;52.494;7.546;2022-11-11T13:08:21;6.80;;;1.25;;
40787;SDS011;26497;52.494;7.546;2022-11-11T13:11:20;3.60;;;1.00;;
40787;SDS011;26497;52.494;7.546;2022-11-11T13:14:02;7.00;;;1.10;;
40787;SDS011;26497;52.494;7.546;2022-11-11T13:16:59;1.30;;;0.77;;
40787;SDS011;26497;52.494;7.546;2022-11-11T13:19:32;3.65;;;1.40;;
40787;SDS011;26497;52.494;7.546;2022-11-11T13:22:07;3.83;;;1.55;;
40787;SDS011;26497;52.494;7.546;2022-11-11T13:24:46;5.50;;;2.05;;
40787;SDS011;26497;52.494;7.546;2022-11-11T13:27:14;6.28;;;3.33;;
40787;SDS011;26497;52.494;7.546;2022-11-11T13:29:56;9.32;;;3.55;;
40787;SDS011;26497;52.494;7.546;2022-11-11T13:32:58;4.28;;;1.10;;
40787;SDS011;26497;52.494;7.546;2022-11-11T13:35:31;4.05;;;1.40;;
40787;SDS011;26497;52.494;7.546;2022-11-11T13:38:01;6.22;;;1.75;;
40787;SDS011;26497;52.494;7.546;2022-11-11T13:40:32;2.97;;;1.20;;
40787;SDS011;26497;52.494;7.546;2022-11-11T13:43:03;3.17;;;0.80;;
40787;SDS011;26497;52.494;7.546;2022-11-11T13:45:32;7.80;;;1.58;;
40787;SDS011;26497;52.494;7.546;2022-11-11T13:48:03;5.30;;;0.82;;
40787;SDS011;26497;52.494;7.546;2022-11-11T13:50:34;2.47;;;0.73;;
40787;SDS011;26497;52.494;7.546;2022-11-11T13:53:04;4.38;;;1.27;;
40787;SDS011;26497;52.494;7.546;2022-11-11T13:55:41;3.97;;;1.02;;
40787;SDS011;26497;52.494;7.546;2022-11-11T13:58:17;6.55;;;0.80;;
40787;SDS011;26497;52.494;7.546;2022-11-11T14:00:55;2.65;;;0.70;;
40787;SDS011;26497;52.494;7.546;2022-11-11T14:03:29;5.00;;;1.63;;
40787;SDS011;26497;52.494;7.546;2022-11-11T14:12:35;4.45;;;2.15;;
40787;SDS011;26497;52.494;7.546;2022-11-11T14:15:08;7.47;;;2.65;;
40787;SDS011;26497;52.494;7.546;2022-11-11T14:18:07;2.83;;;0.88;;
40787;SDS011;26497;52.494;7.546;2022-11-11T14:20:56;3.20;;;1.35;;
40787;SDS011;26497;52.494;7.546;2022-11-11T14:23:29;3.95;;;1.83;;
40787;SDS011;26497;52.494;7.546;2022-11-11T14:28:53;8.15;;;1.63;;
40787;SDS011;26497;52.494;7.546;2022-11-11T14:31:40;1.83;;;0.88;;
40787;SDS011;26497;52.494;7.546;2022-11-11T14:37:40;3.67;;;1.80;;
40787;SDS011;26497;52.494;7.546;2022-11-11T14:40:31;3.45;;;1.30;;
40787;SDS011;26497;52.494;7.546;2022-11-11T14:42:59;2.20;;;1.40;;
40787;SDS011;26497;52.494;7.546;2022-11-11T14:45:51;6.07;;;2.15;;
40787;SDS011;26497;52.494;7.546;2022-11-11T14:51:50;3.92;;;1.70;;
40787;SDS011;26497;52.494;7.546;2022-11-11T14:54:32;10.40;;;1.55;;
40787;SDS011;26497;52.494;7.546;2022-11-11T14:57:15;5.43;;;2.03;;
40787;SDS011;26497;52.494;7.546;2022-11-11T14:59:47;5.63;;;2.28;;
40787;SDS011;26497;52.494;7.546;2022-11-11T15:02:20;4.57;;;1.95;;
40787;SDS011;26497;52.494;7.546;2022-11-11T15:04:57;33.05;;;10.80;;
40787;SDS011;26497;52.494;7.546;2022-11-11T15:07:31;13.30;;;5.18;;
40787;SDS011;26497;52.494;7.546;2022-11-11T15:10:14;6.47;;;2.88;;
40787;SDS011;26497;52.494;7.546;2022-11-11T15:13:04;19.48;;;3.92;;
40787;SDS011;26497;52.494;7.546;2022-11-11T15:16:16;35.85;;;4.43;;
40787;SDS011;26497;52.494;7.546;2022-11-11T15:21:39;8.48;;;1.80;;
40787;SDS011;26497;52.494;7.546;2022-11-11T15:24:21;5.43;;;1.52;;
40787;SDS011;26497;52.494;7.546;2022-11-11T15:27:00;6.15;;;2.03;;
40787;SDS011;26497;52.494;7.546;2022-11-11T15:29:51;10.45;;;2.40;;
40787;SDS011;26497;52.494;7.546;2022-11-11T15:32:32;8.48;;;2.22;;
40787;SDS011;26497;52.494;7.546;2022-11-11T15:35:19;4.25;;;1.77;;
40787;SDS011;26497;52.494;7.546;2022-11-11T15:37:55;4.07;;;1.38;;
40787;SDS011;26497;52.494;7.546;2022-11-11T15:40:29;3.63;;;1.27;;
40787;SDS011;26497;52.494;7.546;2022-11-11T15:43:10;4.53;;;1.77;;
40787;SDS011;26497;52.494;7.546;2022-11-11T15:45:43;13.20;;;1.92;;
40787;SDS011;26497;52.494;7.546;2022-11-11T15:48:15;7.10;;;1.83;;
40787;SDS011;26497;52.494;7.546;2022-11-11T15:50:46;5.68;;;1.52;;